createdAt,value
2023-01-21T00:00:24.267Z,1027.1
2023-01-21T00:05:24.323Z,1027.3
2023-01-21T00:10:24.455Z,1027.3
2023-01-21T00:15:24.506Z,1027.4
2023-01-21T00:20:24.520Z,1027.4
2023-01-21T00:25:24.655Z,1027.5
2023-01-21T00:30:24.895Z,1027.5
2023-01-21T00:35:24.081Z,1027.4
2023-01-21T00:40:24.277Z,1027.4
2023-01-21T00:45:23.989Z,1027.6
2023-01-21T00:50:24.243Z,1027.6
2023-01-21T00:55:24.502Z,1027.7
2023-01-21T01:00:24.212Z,1027.7
2023-01-21T01:05:24.434Z,1027.8
2023-01-21T01:10:24.122Z,1027.8
2023-01-21T01:15:24.546Z,1028
2023-01-21T01:20:23.999Z,1028
2023-01-21T01:25:24.028Z,1028.2
2023-01-21T01:30:24.127Z,1028.2
2023-01-21T01:35:24.792Z,1028.3
2023-01-21T01:40:24.623Z,1028.3
2023-01-21T01:45:24.432Z,1028.4
2023-01-21T01:50:24.612Z,1028.4
2023-01-21T01:55:24.548Z,1028.6
2023-01-21T02:00:24.269Z,1028.6
2023-01-21T02:05:24.195Z,1028.7
2023-01-21T02:10:24.565Z,1028.7
2023-01-21T02:15:24.269Z,1028.8
2023-01-21T02:20:24.336Z,1028.8
2023-01-21T02:25:24.728Z,1028.8
2023-01-21T02:30:24.689Z,1028.8
2023-01-21T02:35:24.259Z,1028.9
2023-01-21T02:40:24.281Z,1028.9
2023-01-21T02:45:24.374Z,1028.9
2023-01-21T02:50:24.542Z,1028.9
2023-01-21T02:55:24.535Z,1029
2023-01-21T03:00:24.895Z,1029
2023-01-21T03:05:24.033Z,1029.1
2023-01-21T03:10:24.953Z,1029.1
2023-01-21T03:15:24.895Z,1029.2
2023-01-21T03:20:24.223Z,1029.2
2023-01-21T03:25:24.634Z,1029.3
2023-01-21T03:30:24.886Z,1029.3
2023-01-21T03:35:24.282Z,1029.3
2023-01-21T03:40:24.169Z,1029.3
2023-01-21T03:45:24.176Z,1029.3
2023-01-21T03:50:24.310Z,1029.3
2023-01-21T03:55:24.597Z,1029.3
2023-01-21T04:00:24.834Z,1029.3
2023-01-21T04:05:24.368Z,1029.4
2023-01-21T04:10:24.871Z,1029.4
2023-01-21T04:15:24.631Z,1029.5
2023-01-21T04:20:24.512Z,1029.5
2023-01-21T04:25:24.335Z,1029.6
2023-01-21T04:30:24.657Z,1029.6
2023-01-21T04:35:24.806Z,1029.7
2023-01-21T04:40:24.718Z,1029.7
2023-01-21T04:45:24.228Z,1029.7
2023-01-21T04:50:24.785Z,1029.7
2023-01-21T04:55:26.604Z,1029.8
2023-01-21T05:00:24.282Z,1029.8
2023-01-21T05:05:25.000Z,1029.9
2023-01-21T05:10:25.159Z,1029.9
2023-01-21T05:15:24.985Z,1029.9
2023-01-21T05:20:24.355Z,1029.9
2023-01-21T05:25:24.723Z,1030.1
2023-01-21T05:30:24.340Z,1030.1
2023-01-21T05:35:25.073Z,1030.2
2023-01-21T05:40:24.648Z,1030.2
2023-01-21T05:45:24.511Z,1030.3
2023-01-21T05:50:24.648Z,1030.3
2023-01-21T05:55:24.837Z,1030.4
2023-01-21T06:00:24.814Z,1030.4
2023-01-21T06:05:24.156Z,1030.7
2023-01-21T06:10:24.422Z,1030.7
2023-01-21T06:15:24.453Z,1030.8
2023-01-21T06:20:24.567Z,1030.8
2023-01-21T06:25:24.769Z,1031.1
2023-01-21T06:30:24.940Z,1031.1
2023-01-21T06:35:24.682Z,1031.2
2023-01-21T06:40:24.945Z,1031.2
2023-01-21T06:45:24.654Z,1031.4
2023-01-21T06:50:24.306Z,1031.4
2023-01-21T06:55:24.865Z,1031.5
2023-01-21T07:00:24.159Z,1031.5
2023-01-21T07:05:25.076Z,1031.6
2023-01-21T07:10:24.402Z,1031.6
2023-01-21T07:15:24.459Z,1031.6
2023-01-21T07:20:25.070Z,1031.6
2023-01-21T07:25:24.584Z,1031.9
2023-01-21T07:30:24.670Z,1031.9
2023-01-21T07:35:24.783Z,1032
2023-01-21T07:40:25.195Z,1032
2023-01-21T07:45:24.284Z,1032
2023-01-21T07:50:25.458Z,1032
2023-01-21T07:55:25.104Z,1032
2023-01-21T08:00:25.072Z,1032
2023-01-21T08:05:24.606Z,1032.4
2023-01-21T08:10:24.455Z,1032.4
2023-01-21T08:15:24.233Z,1032.2
2023-01-21T08:20:31.722Z,1032.2
2023-01-21T08:25:24.578Z,1032.2
2023-01-21T08:30:24.574Z,1032.2
2023-01-21T08:35:24.326Z,1032.4
2023-01-21T08:40:25.125Z,1032.4
2023-01-21T08:45:24.819Z,1032.5
2023-01-21T08:50:25.247Z,1032.5
2023-01-21T08:55:25.020Z,1032.7
2023-01-21T09:00:25.176Z,1032.7
2023-01-21T09:05:25.156Z,1032.8
2023-01-21T09:10:24.910Z,1032.8
2023-01-21T09:15:24.861Z,1032.9
2023-01-21T09:20:25.043Z,1032.9
2023-01-21T09:25:25.105Z,1033.1
2023-01-21T09:30:25.568Z,1033.1
2023-01-21T09:35:24.517Z,1033.3
2023-01-21T09:40:24.977Z,1033.3
2023-01-21T09:45:24.702Z,1033.4
2023-01-21T09:50:24.380Z,1033.4
2023-01-21T09:55:24.936Z,1033.5
2023-01-21T10:00:25.165Z,1033.5
2023-01-21T10:05:25.233Z,1033.6
2023-01-21T10:10:24.847Z,1033.6
2023-01-21T10:15:24.673Z,1033.8
2023-01-21T10:20:25.068Z,1033.8
2023-01-21T10:25:25.319Z,1033.8
2023-01-21T10:30:25.122Z,1033.8
2023-01-21T10:35:24.835Z,1033.8
2023-01-21T10:40:24.600Z,1033.8
2023-01-21T10:45:25.104Z,1033.8
2023-01-21T10:50:25.141Z,1033.8
2023-01-21T10:55:24.301Z,1033.6
2023-01-21T11:00:24.413Z,1033.6
2023-01-21T11:05:24.403Z,1033.5
2023-01-21T11:10:25.009Z,1033.5
2023-01-21T11:15:25.247Z,1033.5
2023-01-21T11:20:24.423Z,1033.5
2023-01-21T11:25:24.632Z,1033.3
2023-01-21T11:30:51.384Z,1033.3
2023-01-21T11:35:24.882Z,1033.2
2023-01-21T11:40:25.736Z,1033.2
2023-01-21T11:45:24.323Z,1033.3
2023-01-21T11:50:24.476Z,1033.3
2023-01-21T11:55:24.448Z,1033.2
2023-01-21T12:00:24.892Z,1033.2
2023-01-21T12:05:25.041Z,1033.2
2023-01-21T12:10:25.072Z,1033.2
2023-01-21T12:15:24.458Z,1033.1
2023-01-21T12:20:24.909Z,1033.1
2023-01-21T12:25:25.313Z,1033
2023-01-21T12:30:24.688Z,1033
2023-01-21T12:35:25.007Z,1033
2023-01-21T12:40:24.775Z,1033
2023-01-21T12:45:25.320Z,1032.9
2023-01-21T12:50:24.869Z,1032.9
2023-01-21T12:55:25.343Z,1032.8
2023-01-21T13:00:24.442Z,1032.8
2023-01-21T13:05:25.044Z,1032.8
2023-01-21T13:10:24.621Z,1032.8
2023-01-21T13:15:24.440Z,1032.8
2023-01-21T13:20:25.158Z,1032.8
2023-01-21T13:25:25.219Z,1032.9
2023-01-21T13:30:24.801Z,1032.9
2023-01-21T13:35:24.597Z,1032.9
2023-01-21T13:40:24.818Z,1032.9
2023-01-21T13:45:24.630Z,1033
2023-01-21T13:50:25.160Z,1033
2023-01-21T13:55:24.672Z,1033.1
2023-01-21T14:00:24.933Z,1033.1
2023-01-21T14:05:25.046Z,1033.1
2023-01-21T14:10:25.153Z,1033.1
2023-01-21T14:15:25.156Z,1033.1
2023-01-21T14:20:25.221Z,1033.1
2023-01-21T14:25:25.247Z,1033.2
2023-01-21T14:30:24.361Z,1033.2
2023-01-21T14:35:25.356Z,1033.2
2023-01-21T14:40:25.328Z,1033.2
2023-01-21T14:45:25.259Z,1033.2
2023-01-21T14:50:25.242Z,1033.2
2023-01-21T14:55:24.620Z,1033.4
2023-01-21T15:00:25.178Z,1033.4
2023-01-21T15:05:25.076Z,1033.5
2023-01-21T15:10:24.648Z,1033.5
2023-01-21T15:15:25.030Z,1033.5
2023-01-21T15:20:25.457Z,1033.5
2023-01-21T15:25:25.202Z,1033.6
2023-01-21T15:30:25.042Z,1033.6
2023-01-21T15:35:25.390Z,1033.7
2023-01-21T15:40:25.073Z,1033.7
2023-01-21T15:45:25.218Z,1033.8
2023-01-21T15:50:25.358Z,1033.8
2023-01-21T15:55:24.739Z,1033.7
2023-01-21T16:00:25.241Z,1033.7
2023-01-21T16:05:25.072Z,1033.8
2023-01-21T16:10:24.557Z,1033.8
2023-01-21T16:15:25.313Z,1033.8
2023-01-21T16:20:25.130Z,1033.8
2023-01-21T16:25:24.642Z,1033.7
2023-01-21T16:30:25.511Z,1033.7
2023-01-21T16:35:24.789Z,1033.7
2023-01-21T16:40:25.446Z,1033.7
2023-01-21T16:45:24.634Z,1033.7
2023-01-21T16:50:24.796Z,1033.7
2023-01-21T16:55:25.080Z,1033.7
2023-01-21T17:00:25.236Z,1033.7
2023-01-21T17:05:25.209Z,1033.7
2023-01-21T17:10:25.386Z,1033.7
2023-01-21T17:15:25.335Z,1033.8
2023-01-21T17:20:25.470Z,1033.8
2023-01-21T17:25:25.731Z,1033.8
2023-01-21T17:30:24.959Z,1033.8
2023-01-21T17:35:25.690Z,1034
2023-01-21T17:40:24.803Z,1034
2023-01-21T17:45:24.852Z,1034
2023-01-21T17:50:24.991Z,1034
2023-01-21T17:55:25.033Z,1034
2023-01-21T18:00:25.326Z,1034
2023-01-21T18:05:25.397Z,1034
2023-01-21T18:10:25.506Z,1034
2023-01-21T18:15:25.514Z,1033.9
2023-01-21T18:20:25.520Z,1033.9
2023-01-21T18:25:24.548Z,1034
2023-01-21T18:30:24.588Z,1034
2023-01-21T18:35:25.052Z,1034.2
2023-01-21T18:40:25.500Z,1034.2
2023-01-21T18:45:24.731Z,1034.1
2023-01-21T18:50:25.402Z,1034.1
2023-01-21T18:55:25.079Z,1034.1
2023-01-21T19:00:24.902Z,1034.1
2023-01-21T19:05:25.556Z,1034.1
2023-01-21T19:10:24.681Z,1034.1
2023-01-21T19:15:25.338Z,1034
2023-01-21T19:20:25.003Z,1034
2023-01-21T19:25:25.526Z,1033.9
2023-01-21T19:30:24.727Z,1033.9
2023-01-21T19:35:25.458Z,1033.9
2023-01-21T19:40:25.565Z,1033.9
2023-01-21T19:45:25.123Z,1033.9
2023-01-21T19:50:25.512Z,1033.9
2023-01-21T19:55:24.770Z,1033.8
2023-01-21T20:00:25.138Z,1033.8
2023-01-21T20:05:25.359Z,1033.9
2023-01-21T20:10:25.411Z,1033.9
2023-01-21T20:15:25.357Z,1033.8
2023-01-21T20:20:25.319Z,1033.8
2023-01-21T20:25:25.377Z,1033.8
2023-01-21T20:30:25.441Z,1033.8
2023-01-21T20:35:25.500Z,1033.9
2023-01-21T20:40:25.607Z,1033.9
2023-01-21T20:45:24.913Z,1034
2023-01-21T20:50:25.536Z,1034
2023-01-21T20:55:25.170Z,1034
2023-01-21T21:00:25.554Z,1034
2023-01-21T21:05:24.777Z,1034
2023-01-21T21:10:24.784Z,1034
2023-01-21T21:15:25.536Z,1034
2023-01-21T21:20:24.948Z,1034
2023-01-21T21:25:25.196Z,1034
2023-01-21T21:30:25.397Z,1034
2023-01-21T21:35:25.423Z,1034
2023-01-21T21:40:24.788Z,1034
2023-01-21T21:45:24.670Z,1034
2023-01-21T21:50:25.047Z,1034
2023-01-21T21:55:25.001Z,1034
2023-01-21T22:00:25.049Z,1034
2023-01-21T22:05:24.964Z,1034
2023-01-21T22:10:25.459Z,1034
2023-01-21T22:15:25.039Z,1034
2023-01-21T22:20:25.250Z,1034
2023-01-21T22:25:25.503Z,1033.9
2023-01-21T22:30:25.344Z,1033.9
2023-01-21T22:35:24.912Z,1033.9
2023-01-21T22:40:25.598Z,1033.9
2023-01-21T22:45:25.134Z,1033.8
2023-01-21T22:50:25.638Z,1033.8
2023-01-21T22:55:25.669Z,1033.8
2023-01-21T23:00:25.687Z,1033.8
2023-01-21T23:05:25.261Z,1033.8
2023-01-21T23:10:25.481Z,1033.8
2023-01-21T23:15:25.588Z,1033.8
2023-01-21T23:20:25.695Z,1033.8
2023-01-21T23:25:24.723Z,1033.7
2023-01-21T23:30:25.094Z,1033.7
2023-01-21T23:35:25.078Z,1033.6
2023-01-21T23:40:25.174Z,1033.6
2023-01-21T23:45:25.234Z,1033.7
2023-01-21T23:50:25.372Z,1033.7
2023-01-21T23:55:26.365Z,1033.6
